createdAt,value
2018-05-23T00:00:23.386Z,110.40
2018-05-23T00:01:23.509Z,105.50
2018-05-23T00:02:23.425Z,113.60
2018-05-23T00:03:23.435Z,108.00
2018-05-23T00:04:23.441Z,109.80
2018-05-23T00:05:23.458Z,111.80
2018-05-23T00:06:23.601Z,103.70
2018-05-23T00:07:23.482Z,107.20
2018-05-23T00:08:23.490Z,122.10
2018-05-23T00:09:23.489Z,108.60
2018-05-23T00:10:23.511Z,115.00
2018-05-23T00:11:23.666Z,111.90
2018-05-23T00:12:23.533Z,106.20
2018-05-23T00:13:23.537Z,104.00
2018-05-23T00:14:23.548Z,111.20
2018-05-23T00:15:23.574Z,113.70
2018-05-23T00:16:23.682Z,119.30
2018-05-23T00:17:23.584Z,116.80
2018-05-23T00:18:23.601Z,115.10
2018-05-23T00:19:23.606Z,122.30
2018-05-23T00:20:23.615Z,117.00
2018-05-23T00:21:23.723Z,125.50
2018-05-23T00:22:23.650Z,119.50
2018-05-23T00:23:23.649Z,125.70
2018-05-23T00:24:23.670Z,133.40
2018-05-23T00:25:23.803Z,139.10
2018-05-23T00:26:23.885Z,128.70
2018-05-23T00:27:23.706Z,141.50
2018-05-23T00:28:23.725Z,125.00
2018-05-23T00:29:23.729Z,128.30
2018-05-23T00:30:23.726Z,141.00
2018-05-23T00:31:23.763Z,140.10
2018-05-23T00:32:23.870Z,144.80
2018-05-23T00:33:23.783Z,136.80
2018-05-23T00:34:23.784Z,133.50
2018-05-23T00:35:23.790Z,137.40
2018-05-23T00:36:23.794Z,119.00
2018-05-23T00:37:23.906Z,126.00
2018-05-23T00:38:23.817Z,124.30
2018-05-23T00:39:23.834Z,120.00
2018-05-23T00:40:23.840Z,117.80
2018-05-23T00:41:23.870Z,116.40
2018-05-23T00:42:24.197Z,107.70
2018-05-23T00:43:23.894Z,123.50
2018-05-23T00:44:23.902Z,118.10
2018-05-23T00:45:23.898Z,126.20
2018-05-23T00:46:23.926Z,118.30
2018-05-23T00:47:24.036Z,124.60
2018-05-23T00:48:23.933Z,118.60
2018-05-23T00:49:23.956Z,110.60
2018-05-23T00:50:23.983Z,113.00
2018-05-23T00:51:23.964Z,108.00
2018-05-23T00:52:24.087Z,116.20
2018-05-23T00:53:23.991Z,116.80
2018-05-23T00:54:24.011Z,120.40
2018-05-23T00:55:24.014Z,125.80
2018-05-23T00:56:24.027Z,130.60
2018-05-23T00:57:24.136Z,123.70
2018-05-23T00:58:24.058Z,126.00
2018-05-23T00:59:24.061Z,124.40
2018-05-23T01:00:24.073Z,128.00
2018-05-23T01:01:24.095Z,123.30
2018-05-23T01:02:24.216Z,124.10
2018-05-23T01:03:24.235Z,133.10
2018-05-23T01:04:24.129Z,128.90
2018-05-23T01:05:24.134Z,128.30
2018-05-23T01:06:24.144Z,132.70
2018-05-23T01:07:24.362Z,119.70
2018-05-23T01:08:24.175Z,128.70
2018-05-23T01:09:24.180Z,129.70
2018-05-23T01:10:24.198Z,123.10
2018-05-23T01:11:24.204Z,122.50
2018-05-23T01:12:24.321Z,132.70
2018-05-23T01:13:24.224Z,132.50
2018-05-23T01:14:24.245Z,139.20
2018-05-23T01:15:24.233Z,125.90
2018-05-23T01:16:24.264Z,126.10
2018-05-23T01:17:24.361Z,129.10
2018-05-23T01:18:24.286Z,121.40
2018-05-23T01:19:24.300Z,128.70
2018-05-23T01:20:24.317Z,122.20
2018-05-23T01:21:24.301Z,128.00
2018-05-23T01:22:24.428Z,122.30
2018-05-23T01:23:24.329Z,115.80
2018-05-23T01:24:24.349Z,114.00
2018-05-23T01:25:24.367Z,118.10
2018-05-23T01:26:24.369Z,125.90
2018-05-23T01:27:24.545Z,118.20
2018-05-23T01:28:24.392Z,130.10
2018-05-23T01:29:24.394Z,121.70
2018-05-23T01:30:24.400Z,128.00
2018-05-23T01:31:24.434Z,127.00
2018-05-23T01:32:24.527Z,123.00
2018-05-23T01:33:24.434Z,123.50
2018-05-23T01:34:24.458Z,137.50
2018-05-23T01:35:24.468Z,117.80
2018-05-23T01:36:24.470Z,123.60
2018-05-23T01:37:24.590Z,121.90
2018-05-23T01:38:24.510Z,120.80
2018-05-23T01:39:24.512Z,122.60
2018-05-23T01:40:24.515Z,126.50
2018-05-23T01:41:24.603Z,135.30
2018-05-23T01:42:24.652Z,140.00
2018-05-23T01:43:24.546Z,140.00
2018-05-23T01:44:24.573Z,141.10
2018-05-23T01:45:24.565Z,164.70
2018-05-23T01:46:24.594Z,156.40
2018-05-23T01:47:24.704Z,167.80
2018-05-23T01:48:24.619Z,153.60
2018-05-23T01:49:24.613Z,142.10
2018-05-23T01:50:24.622Z,142.40
2018-05-23T01:51:24.651Z,142.50
2018-05-23T01:52:24.808Z,126.70
2018-05-23T01:53:24.654Z,142.20
2018-05-23T01:54:24.681Z,145.10
2018-05-23T01:55:24.681Z,139.30
2018-05-23T01:56:24.712Z,149.50
2018-05-23T01:57:24.816Z,166.60
2018-05-23T01:58:24.706Z,158.10
2018-05-23T01:59:24.743Z,159.10
2018-05-23T02:00:24.731Z,159.70
2018-05-23T02:01:24.744Z,154.00
2018-05-23T02:02:24.864Z,160.70
2018-05-23T02:03:24.778Z,175.90
2018-05-23T02:04:24.793Z,174.60
2018-05-23T02:05:24.796Z,166.00
2018-05-23T02:06:24.815Z,160.70
2018-05-23T02:07:24.959Z,156.70
2018-05-23T02:08:24.818Z,161.60
2018-05-23T02:09:24.860Z,167.70
2018-05-23T02:10:24.853Z,164.90
2018-05-23T02:11:24.862Z,169.70
2018-05-23T02:12:24.986Z,171.10
2018-05-23T02:13:24.883Z,158.60
2018-05-23T02:14:24.907Z,168.60
2018-05-23T02:15:24.898Z,167.90
2018-05-23T02:16:24.930Z,173.30
2018-05-23T02:17:24.920Z,166.00
2018-05-23T02:18:25.100Z,176.80
2018-05-23T02:19:24.951Z,191.50
2018-05-23T02:20:24.961Z,194.00
2018-05-23T02:21:24.979Z,196.90
2018-05-23T02:22:24.982Z,209.60
2018-05-23T02:23:25.080Z,201.70
2018-05-23T02:24:25.015Z,213.10
2018-05-23T02:25:25.017Z,190.30
2018-05-23T02:26:25.018Z,210.70
2018-05-23T02:27:25.023Z,194.70
2018-05-23T02:28:25.141Z,207.70
2018-05-23T02:29:25.057Z,218.50
2018-05-23T02:30:25.060Z,199.30
2018-05-23T02:31:25.068Z,227.00
2018-05-23T02:32:25.080Z,215.50
2018-05-23T02:33:25.200Z,235.00
2018-05-23T02:34:25.117Z,205.40
2018-05-23T02:35:25.136Z,204.00
2018-05-23T02:36:25.144Z,228.20
2018-05-23T02:37:25.266Z,196.10
2018-05-23T02:38:25.243Z,191.70
2018-05-23T02:39:25.164Z,199.70
2018-05-23T02:40:25.190Z,223.50
2018-05-23T02:41:25.197Z,217.70
2018-05-23T02:42:25.213Z,220.60
2018-05-23T02:43:25.316Z,222.80
2018-05-23T02:44:25.228Z,184.90
2018-05-23T02:45:25.221Z,201.00
2018-05-23T02:46:25.236Z,168.00
2018-05-23T02:47:25.261Z,171.50
2018-05-23T02:48:25.408Z,170.80
2018-05-23T02:49:25.283Z,154.80
2018-05-23T02:50:25.289Z,152.40
2018-05-23T02:51:25.301Z,161.50
2018-05-23T02:52:25.297Z,160.70
2018-05-23T02:53:25.417Z,180.80
2018-05-23T02:54:25.343Z,162.10
2018-05-23T02:55:25.463Z,166.10
2018-05-23T02:56:25.363Z,154.70
2018-05-23T02:57:25.349Z,162.20
2018-05-23T02:58:25.474Z,163.10
2018-05-23T02:59:25.432Z,176.00
2018-05-23T03:00:25.385Z,158.90
2018-05-23T03:01:25.408Z,167.30
2018-05-23T03:02:25.406Z,157.00
2018-05-23T03:03:25.572Z,166.30
2018-05-23T03:04:25.443Z,167.00
2018-05-23T03:05:25.451Z,159.40
2018-05-23T03:06:25.447Z,192.10
2018-05-23T03:07:25.459Z,156.40
2018-05-23T03:08:25.584Z,178.10
2018-05-23T03:09:25.482Z,182.00
2018-05-23T03:10:25.506Z,179.70
2018-05-23T03:11:25.515Z,182.20
2018-05-23T03:12:25.534Z,182.10
2018-05-23T03:13:25.639Z,206.10
2018-05-23T03:14:25.554Z,183.50
2018-05-23T03:15:25.545Z,177.20
2018-05-23T03:16:25.578Z,161.80
2018-05-23T03:17:25.579Z,171.10
2018-05-23T03:18:25.681Z,161.10
2018-05-23T03:19:25.620Z,185.60
2018-05-23T03:20:25.626Z,192.60
2018-05-23T03:21:25.639Z,166.70
2018-05-23T03:22:25.686Z,162.30
2018-05-23T03:23:25.739Z,190.00
2018-05-23T03:24:25.663Z,205.40
2018-05-23T03:25:25.654Z,198.20
2018-05-23T03:26:25.686Z,203.70
2018-05-23T03:27:25.696Z,195.00
2018-05-23T03:28:25.786Z,192.40
2018-05-23T03:29:25.712Z,188.50
2018-05-23T03:30:25.722Z,182.50
2018-05-23T03:31:25.748Z,208.70
2018-05-23T03:32:25.729Z,231.80
2018-05-23T03:33:25.863Z,210.20
2018-05-23T03:34:25.773Z,214.80
2018-05-23T03:35:25.781Z,197.00
2018-05-23T03:36:25.785Z,183.90
2018-05-23T03:37:25.799Z,176.50
2018-05-23T03:38:25.893Z,176.90
2018-05-23T03:39:25.803Z,183.80
2018-05-23T03:40:25.848Z,151.70
2018-05-23T03:41:25.825Z,150.00
2018-05-23T03:42:25.862Z,148.90
2018-05-23T03:43:25.946Z,155.30
2018-05-23T03:44:25.879Z,173.00
2018-05-23T03:45:25.893Z,194.10
2018-05-23T03:46:25.896Z,186.10
2018-05-23T03:47:25.895Z,203.10
2018-05-23T03:48:26.020Z,191.40
2018-05-23T03:49:25.923Z,185.80
2018-05-23T03:50:25.942Z,195.50
2018-05-23T03:51:25.938Z,212.90
2018-05-23T03:52:25.964Z,211.30
2018-05-23T03:53:26.053Z,201.30
2018-05-23T03:54:25.963Z,208.90
2018-05-23T03:55:26.188Z,205.90
2018-05-23T03:56:26.012Z,211.20
2018-05-23T03:57:25.995Z,226.60
2018-05-23T03:58:26.119Z,229.30
2018-05-23T03:59:26.023Z,227.60
2018-05-23T04:00:26.164Z,238.80
2018-05-23T04:01:26.044Z,241.80
2018-05-23T04:02:26.075Z,239.60
2018-05-23T04:03:26.179Z,268.30
2018-05-23T04:04:26.083Z,252.20
2018-05-23T04:05:26.084Z,262.00
2018-05-23T04:06:26.091Z,255.20
2018-05-23T04:07:26.102Z,256.00
2018-05-23T04:08:26.214Z,227.50
2018-05-23T04:09:26.137Z,244.70
2018-05-23T04:10:26.136Z,257.30
2018-05-23T04:11:26.144Z,234.90
2018-05-23T04:12:26.166Z,251.00
2018-05-23T04:13:26.341Z,237.70
2018-05-23T04:14:26.195Z,250.50
2018-05-23T04:15:26.260Z,256.00
2018-05-23T04:16:26.200Z,230.00
2018-05-23T04:17:26.218Z,282.50
2018-05-23T04:18:26.455Z,245.80
2018-05-23T04:19:26.249Z,263.40
2018-05-23T04:20:26.259Z,245.40
2018-05-23T04:21:26.252Z,259.50
2018-05-23T04:22:26.281Z,242.40
2018-05-23T04:23:26.442Z,248.60
2018-05-23T04:24:26.296Z,232.60
2018-05-23T04:25:26.312Z,243.50
2018-05-23T04:26:26.308Z,239.60
2018-05-23T04:27:26.339Z,268.60
2018-05-23T04:28:26.439Z,287.00
2018-05-23T04:29:26.334Z,282.80
2018-05-23T04:30:26.372Z,290.40
2018-05-23T04:31:26.382Z,285.50
2018-05-23T04:32:26.373Z,253.90
2018-05-23T04:33:26.479Z,291.00
2018-05-23T04:34:26.393Z,332.30
2018-05-23T04:35:26.412Z,294.60
2018-05-23T04:36:26.413Z,307.50
2018-05-23T04:37:26.435Z,295.50
2018-05-23T04:38:26.551Z,299.60
2018-05-23T04:39:26.548Z,281.90
2018-05-23T04:40:26.476Z,280.70
2018-05-23T04:41:26.488Z,281.10
2018-05-23T04:42:26.496Z,259.80
2018-05-23T04:43:26.600Z,308.40
2018-05-23T04:44:26.514Z,284.20
2018-05-23T04:45:26.523Z,286.20
2018-05-23T04:46:26.534Z,310.60
2018-05-23T04:47:26.547Z,301.10
2018-05-23T04:48:26.651Z,296.80
2018-05-23T04:49:26.566Z,297.60
2018-05-23T04:50:26.571Z,310.50
2018-05-23T04:51:26.578Z,313.30
2018-05-23T04:52:26.604Z,311.20
2018-05-23T04:53:26.718Z,318.20
2018-05-23T04:54:26.625Z,312.20
2018-05-23T04:55:26.633Z,312.00
2018-05-23T04:56:26.644Z,330.00
2018-05-23T04:57:26.656Z,349.50
2018-05-23T04:58:26.741Z,399.80
2018-05-23T04:59:26.671Z,419.40
2018-05-23T05:00:26.676Z,476.00
2018-05-23T05:01:26.693Z,485.00
2018-05-23T05:02:26.701Z,363.80
2018-05-23T05:03:26.808Z,504.90
2018-05-23T05:04:26.707Z,582.10
2018-05-23T05:05:26.731Z,540.10
2018-05-23T05:06:26.726Z,580.60
2018-05-23T05:07:26.762Z,503.30
2018-05-23T05:08:26.753Z,439.90
2018-05-23T05:09:26.887Z,588.90
2018-05-23T05:10:26.777Z,568.50
2018-05-23T05:11:26.780Z,552.00
2018-05-23T05:12:26.802Z,504.10
2018-05-23T05:13:26.821Z,515.10
2018-05-23T05:14:26.973Z,439.40
2018-05-23T05:15:26.825Z,493.20
2018-05-23T05:16:26.839Z,490.80
2018-05-23T05:17:26.847Z,564.00
2018-05-23T05:18:26.863Z,644.20
2018-05-23T05:19:26.962Z,568.10
2018-05-23T05:20:26.890Z,557.00
2018-05-23T05:21:26.897Z,780.20
2018-05-23T05:22:26.907Z,657.60
2018-05-23T05:23:26.917Z,672.50
2018-05-23T05:24:27.018Z,736.80
2018-05-23T05:25:26.932Z,790.60
2018-05-23T05:26:26.937Z,834.40
2018-05-23T05:27:26.961Z,863.50
2018-05-23T05:28:26.959Z,892.50
2018-05-23T05:29:27.122Z,865.20
2018-05-23T05:30:26.980Z,779.90
2018-05-23T05:31:27.009Z,871.90
2018-05-23T05:32:27.004Z,1136.90
2018-05-23T05:33:27.035Z,974.10
2018-05-23T05:34:27.182Z,1134.80
2018-05-23T05:35:27.030Z,1181.30
2018-05-23T05:36:27.040Z,1213.80
2018-05-23T05:37:27.073Z,1024.50
2018-05-23T05:38:27.196Z,1143.70
2018-05-23T05:39:27.192Z,1193.30
2018-05-23T05:40:27.096Z,1115.20
2018-05-23T05:41:27.111Z,1066.70
2018-05-23T05:42:27.118Z,1127.40
2018-05-23T05:43:27.141Z,1237.50
2018-05-23T05:44:27.287Z,1202.80
2018-05-23T05:45:27.155Z,1257.90
2018-05-23T05:46:27.147Z,1248.20
2018-05-23T05:47:27.176Z,1287.60
2018-05-23T05:48:27.182Z,1295.20
2018-05-23T05:49:27.277Z,1398.10
2018-05-23T05:50:27.188Z,1388.20
2018-05-23T05:51:27.210Z,1268.40
2018-05-23T05:52:27.211Z,1350.30
2018-05-23T05:53:27.230Z,1409.00
2018-05-23T05:54:27.332Z,1233.50
2018-05-23T05:55:27.265Z,1369.00
2018-05-23T05:56:27.276Z,1229.00
2018-05-23T05:57:27.272Z,1387.10
2018-05-23T05:58:27.276Z,1346.50
2018-05-23T05:59:27.381Z,1411.30
2018-05-23T06:00:27.306Z,1157.40
2018-05-23T06:01:27.330Z,1391.90
2018-05-23T06:02:27.320Z,1257.00
2018-05-23T06:03:27.347Z,1397.60
2018-05-23T06:04:27.454Z,1388.90
2018-05-23T06:05:27.352Z,1414.00
2018-05-23T06:06:27.372Z,1400.90
2018-05-23T06:07:27.371Z,1260.70
2018-05-23T06:08:27.395Z,926.30
2018-05-23T06:09:27.521Z,1362.50
2018-05-23T06:10:27.405Z,1251.40
2018-05-23T06:11:27.429Z,1113.50
2018-05-23T06:12:27.435Z,1021.80
2018-05-23T06:13:27.437Z,1230.30
2018-05-23T06:14:27.544Z,1240.80
2018-05-23T06:15:27.456Z,1339.30
2018-05-23T06:16:27.479Z,1191.80
2018-05-23T06:17:27.477Z,1138.20
2018-05-23T06:18:27.494Z,1229.60
2018-05-23T06:19:27.612Z,1150.40
2018-05-23T06:20:27.512Z,1102.10
2018-05-23T06:21:27.520Z,1000.20
2018-05-23T06:22:27.533Z,950.50
2018-05-23T06:23:27.563Z,1039.40
2018-05-23T06:24:27.669Z,888.70
2018-05-23T06:25:27.584Z,1037.40
2018-05-23T06:26:27.591Z,1119.60
2018-05-23T06:27:27.598Z,1159.70
2018-05-23T06:28:27.623Z,1124.60
2018-05-23T06:29:27.726Z,1171.10
2018-05-23T06:30:27.665Z,1287.50
2018-05-23T06:31:27.636Z,1210.00
2018-05-23T06:32:27.646Z,951.20
2018-05-23T06:33:27.679Z,850.30
2018-05-23T06:34:27.899Z,912.30
2018-05-23T06:35:27.694Z,833.00
2018-05-23T06:36:27.699Z,816.10
2018-05-23T06:37:27.696Z,661.60
2018-05-23T06:38:27.706Z,686.00
2018-05-23T06:39:27.729Z,734.70
2018-05-23T06:40:27.844Z,581.00
2018-05-23T06:41:27.753Z,750.70
2018-05-23T06:42:27.770Z,722.10
2018-05-23T06:43:27.800Z,735.20
2018-05-23T06:44:27.794Z,703.90
2018-05-23T06:45:27.882Z,815.60
2018-05-23T06:46:27.797Z,731.10
2018-05-23T06:47:27.818Z,505.00
2018-05-23T06:48:27.835Z,726.80
2018-05-23T06:49:27.838Z,655.10
2018-05-23T06:50:28.007Z,695.20
2018-05-23T06:51:27.872Z,658.90
2018-05-23T06:52:27.868Z,609.80
2018-05-23T06:53:27.894Z,689.50
2018-05-23T06:54:27.900Z,649.60
2018-05-23T06:55:27.909Z,694.80
2018-05-23T06:56:28.028Z,594.30
2018-05-23T06:57:27.917Z,971.40
2018-05-23T06:58:27.923Z,941.10
2018-05-23T06:59:27.936Z,841.10
2018-05-23T07:00:27.957Z,661.50
2018-05-23T07:01:27.957Z,448.40
2018-05-23T07:02:28.082Z,471.30
2018-05-23T07:03:27.993Z,524.40
2018-05-23T07:04:28.000Z,484.30
2018-05-23T07:05:28.018Z,434.70
2018-05-23T07:06:28.013Z,404.10
2018-05-23T07:07:28.138Z,383.70
2018-05-23T07:08:28.029Z,329.00
2018-05-23T07:09:28.062Z,315.30
2018-05-23T07:10:28.075Z,292.90
2018-05-23T07:11:28.086Z,298.60
2018-05-23T07:12:28.093Z,280.20
2018-05-23T07:13:28.207Z,263.10
2018-05-23T07:14:28.096Z,265.70
2018-05-23T07:15:28.114Z,278.30
2018-05-23T07:16:28.124Z,259.60
2018-05-23T07:17:28.127Z,277.70
2018-05-23T07:18:28.135Z,278.40
2018-05-23T07:19:28.261Z,279.80
2018-05-23T07:20:28.287Z,280.20
2018-05-23T07:21:28.187Z,282.10
2018-05-23T07:22:28.172Z,288.50
2018-05-23T07:23:28.184Z,306.20
2018-05-23T07:24:28.308Z,294.10
2018-05-23T07:25:28.221Z,322.00
2018-05-23T07:26:28.212Z,324.40
2018-05-23T07:27:28.235Z,307.00
2018-05-23T07:28:28.255Z,328.10
2018-05-23T07:29:28.344Z,312.10
2018-05-23T07:30:28.259Z,331.10
2018-05-23T07:31:28.263Z,321.30
2018-05-23T07:32:28.281Z,307.50
2018-05-23T07:33:28.310Z,278.00
2018-05-23T07:34:28.411Z,279.60
2018-05-23T07:35:28.330Z,291.20
2018-05-23T07:36:28.319Z,298.70
2018-05-23T07:37:28.351Z,292.10
2018-05-23T07:38:28.433Z,266.60
2018-05-23T07:39:28.460Z,297.90
2018-05-23T07:40:28.375Z,275.30
2018-05-23T07:41:28.364Z,260.30
2018-05-23T07:42:28.378Z,253.50
2018-05-23T07:43:28.388Z,263.80
2018-05-23T07:44:28.413Z,263.40
2018-05-23T07:45:28.525Z,265.70
2018-05-23T07:46:28.429Z,268.40
2018-05-23T07:47:28.426Z,284.10
2018-05-23T07:48:28.437Z,287.80
2018-05-23T07:49:28.455Z,311.30
2018-05-23T07:50:28.562Z,291.60
2018-05-23T07:51:28.493Z,308.50
2018-05-23T07:52:28.477Z,307.20
2018-05-23T07:53:28.492Z,278.10
2018-05-23T07:54:28.518Z,308.70
2018-05-23T07:55:28.620Z,293.40
2018-05-23T07:56:28.517Z,312.00
2018-05-23T07:57:28.540Z,273.90
2018-05-23T07:58:28.563Z,288.50
2018-05-23T07:59:28.572Z,352.90
2018-05-23T08:00:28.680Z,356.50
2018-05-23T08:01:28.701Z,310.50
2018-05-23T08:02:28.583Z,297.00
2018-05-23T08:03:28.601Z,319.20
2018-05-23T08:04:28.618Z,318.20
2018-05-23T08:05:28.714Z,320.90
2018-05-23T08:06:28.638Z,282.30
2018-05-23T08:07:28.762Z,297.80
2018-05-23T08:08:28.638Z,309.80
2018-05-23T08:09:28.674Z,288.00
2018-05-23T08:10:28.762Z,314.50
2018-05-23T08:11:28.688Z,292.40
2018-05-23T08:12:28.691Z,285.20
2018-05-23T08:13:28.707Z,286.80
2018-05-23T08:14:28.708Z,292.50
2018-05-23T08:15:28.828Z,300.50
2018-05-23T08:16:28.740Z,299.10
2018-05-23T08:17:28.740Z,300.30
2018-05-23T08:18:28.739Z,304.90
2018-05-23T08:19:28.769Z,330.40
2018-05-23T08:20:28.883Z,287.40
2018-05-23T08:21:28.772Z,262.20
2018-05-23T08:22:28.789Z,274.40
2018-05-23T08:23:28.792Z,305.10
2018-05-23T08:24:28.879Z,277.40
2018-05-23T08:25:28.916Z,291.40
2018-05-23T08:26:28.847Z,303.90
2018-05-23T08:27:28.836Z,281.80
2018-05-23T08:28:28.851Z,274.30
2018-05-23T08:29:28.846Z,265.60
2018-05-23T08:30:28.868Z,257.70
2018-05-23T08:31:29.030Z,277.20
2018-05-23T08:32:28.893Z,247.20
2018-05-23T08:33:28.894Z,271.30
2018-05-23T08:34:28.898Z,274.70
2018-05-23T08:35:28.934Z,266.80
2018-05-23T08:36:29.049Z,278.40
2018-05-23T08:37:28.949Z,298.00
2018-05-23T08:38:28.947Z,280.90
2018-05-23T08:39:28.953Z,292.10
2018-05-23T08:40:28.964Z,302.90
2018-05-23T08:41:29.308Z,266.80
2018-05-23T08:42:28.997Z,287.10
2018-05-23T08:43:29.001Z,279.80
2018-05-23T08:44:29.004Z,234.30
2018-05-23T08:45:29.015Z,261.80
2018-05-23T08:46:29.024Z,265.40
2018-05-23T08:47:29.155Z,281.30
2018-05-23T08:48:29.055Z,285.80
2018-05-23T08:49:29.072Z,305.10
2018-05-23T08:50:29.069Z,266.30
2018-05-23T08:51:29.073Z,306.20
2018-05-23T08:52:29.236Z,312.20
2018-05-23T08:53:29.097Z,313.70
2018-05-23T08:54:29.109Z,314.20
2018-05-23T08:55:29.133Z,317.20
2018-05-23T08:56:29.137Z,293.20
2018-05-23T08:57:29.236Z,290.80
2018-05-23T08:58:29.160Z,324.80
2018-05-23T08:59:29.174Z,336.50
2018-05-23T09:00:29.168Z,353.40
2018-05-23T09:01:29.187Z,344.20
2018-05-23T09:02:29.210Z,354.90
2018-05-23T09:03:29.315Z,354.90
2018-05-23T09:04:29.217Z,354.20
2018-05-23T09:05:29.217Z,368.80
2018-05-23T09:06:29.240Z,371.70
2018-05-23T09:07:29.242Z,366.30
2018-05-23T09:08:29.348Z,382.30
2018-05-23T09:09:29.268Z,383.70
2018-05-23T09:10:29.265Z,386.30
2018-05-23T09:11:29.287Z,383.80
2018-05-23T09:12:29.432Z,399.00
2018-05-23T09:13:29.395Z,385.90
2018-05-23T09:14:29.304Z,396.40
2018-05-23T09:15:29.337Z,392.80
2018-05-23T09:16:29.342Z,387.70
2018-05-23T09:17:29.337Z,384.70
2018-05-23T09:18:29.458Z,360.70
2018-05-23T09:19:29.357Z,360.40
2018-05-23T09:20:29.385Z,380.00
2018-05-23T09:21:29.388Z,364.30
2018-05-23T09:22:29.388Z,364.80
2018-05-23T09:23:29.503Z,361.20
2018-05-23T09:24:29.420Z,392.80
2018-05-23T09:25:29.512Z,358.30
2018-05-23T09:26:29.452Z,330.50
2018-05-23T09:27:29.435Z,364.60
2018-05-23T09:28:29.546Z,384.60
2018-05-23T09:29:29.592Z,357.50
2018-05-23T09:30:29.488Z,336.70
2018-05-23T09:31:29.478Z,330.80
2018-05-23T09:32:29.489Z,320.40
2018-05-23T09:33:29.610Z,315.80
2018-05-23T09:34:29.509Z,297.70
2018-05-23T09:35:29.519Z,300.10
2018-05-23T09:36:29.542Z,306.10
2018-05-23T09:37:29.557Z,292.90
2018-05-23T09:38:29.704Z,277.10
2018-05-23T09:39:29.572Z,265.20
2018-05-23T09:40:29.594Z,281.00
2018-05-23T09:41:29.577Z,264.10
2018-05-23T09:42:29.601Z,273.40
2018-05-23T09:43:29.754Z,280.10
2018-05-23T09:44:29.617Z,272.70
2018-05-23T09:45:29.619Z,258.00
2018-05-23T09:46:29.642Z,273.80
2018-05-23T09:47:29.657Z,271.10
2018-05-23T09:48:29.673Z,245.80
2018-05-23T09:49:29.897Z,219.80
2018-05-23T09:50:29.678Z,277.10
2018-05-23T09:51:29.688Z,300.90
2018-05-23T09:52:29.698Z,278.20
2018-05-23T09:53:29.716Z,312.90
2018-05-23T09:54:29.868Z,339.30
2018-05-23T09:55:29.738Z,299.40
2018-05-23T09:56:29.742Z,330.70
2018-05-23T09:57:29.771Z,308.00
2018-05-23T09:58:29.779Z,303.80
2018-05-23T09:59:29.880Z,342.90
2018-05-23T10:00:29.798Z,340.70
2018-05-23T10:01:29.803Z,315.80
2018-05-23T10:02:29.805Z,352.00
2018-05-23T10:03:29.835Z,302.70
2018-05-23T10:04:29.976Z,323.60
2018-05-23T10:05:29.856Z,345.60
2018-05-23T10:06:29.860Z,358.30
2018-05-23T10:07:29.875Z,298.00
2018-05-23T10:08:29.863Z,305.60
2018-05-23T10:09:30.048Z,265.00
2018-05-23T10:10:29.969Z,309.50
2018-05-23T10:11:29.912Z,287.50
2018-05-23T10:12:29.916Z,321.00
2018-05-23T10:13:29.936Z,283.90
2018-05-23T10:14:30.043Z,291.00
2018-05-23T10:15:29.947Z,263.90
2018-05-23T10:16:29.964Z,261.90
2018-05-23T10:17:29.982Z,280.70
2018-05-23T10:18:29.986Z,269.80
2018-05-23T10:19:30.090Z,273.90
2018-05-23T10:20:30.020Z,310.10
2018-05-23T10:21:30.020Z,299.40
2018-05-23T10:22:30.041Z,279.10
2018-05-23T10:23:30.040Z,240.10
2018-05-23T10:24:30.211Z,254.40
2018-05-23T10:25:30.075Z,273.80
2018-05-23T10:26:30.148Z,251.10
2018-05-23T10:27:30.086Z,250.60
2018-05-23T10:28:30.085Z,280.10
2018-05-23T10:29:30.257Z,257.90
2018-05-23T10:30:30.125Z,262.70
2018-05-23T10:31:30.143Z,250.80
2018-05-23T10:32:30.128Z,233.30
2018-05-23T10:33:30.199Z,246.90
2018-05-23T10:34:30.263Z,240.50
2018-05-23T10:35:30.180Z,240.20
2018-05-23T10:36:30.179Z,244.90
2018-05-23T10:37:30.212Z,247.20
2018-05-23T10:38:30.220Z,218.20
2018-05-23T10:39:30.321Z,214.90
2018-05-23T10:40:30.355Z,225.20
2018-05-23T10:41:30.257Z,225.90
2018-05-23T10:42:30.247Z,226.10
2018-05-23T10:43:30.268Z,221.50
2018-05-23T10:44:30.424Z,238.90
2018-05-23T10:45:30.307Z,218.60
2018-05-23T10:46:30.311Z,211.00
2018-05-23T10:47:30.315Z,161.80
2018-05-23T10:48:30.315Z,201.40
2018-05-23T10:49:30.446Z,197.90
2018-05-23T10:50:30.336Z,180.40
2018-05-23T10:51:30.372Z,184.90
2018-05-23T10:52:30.359Z,198.20
2018-05-23T10:53:30.505Z,163.40
2018-05-23T10:54:30.561Z,168.10
2018-05-23T10:55:30.400Z,167.10
2018-05-23T10:56:30.432Z,170.80
2018-05-23T10:57:30.441Z,205.30
2018-05-23T10:58:30.456Z,214.20
2018-05-23T10:59:30.563Z,223.90
2018-05-23T11:00:30.456Z,220.10
2018-05-23T11:01:30.487Z,225.00
2018-05-23T11:02:30.485Z,252.40
2018-05-23T11:03:30.515Z,240.90
2018-05-23T11:04:30.616Z,247.20
2018-05-23T11:05:30.528Z,241.40
2018-05-23T11:06:30.528Z,251.10
2018-05-23T11:07:30.561Z,219.50
2018-05-23T11:08:30.567Z,215.40
2018-05-23T11:09:30.671Z,210.80
2018-05-23T11:10:30.713Z,193.30
2018-05-23T11:11:30.591Z,183.90
2018-05-23T11:12:30.618Z,173.20
2018-05-23T11:13:30.628Z,162.50
2018-05-23T11:14:30.740Z,157.00
2018-05-23T11:15:30.668Z,162.40
2018-05-23T11:16:30.676Z,128.90
2018-05-23T11:17:30.671Z,121.60
2018-05-23T11:18:30.704Z,109.60
2018-05-23T11:19:30.821Z,123.70
2018-05-23T11:20:30.736Z,111.50
2018-05-23T11:21:30.740Z,116.90
2018-05-23T11:22:30.740Z,103.80
2018-05-23T11:23:30.756Z,107.40
2018-05-23T11:24:30.872Z,103.50
2018-05-23T11:25:30.780Z,92.10
2018-05-23T11:26:30.797Z,93.50
2018-05-23T11:27:30.792Z,92.40
2018-05-23T11:28:30.817Z,97.40
2018-05-23T11:29:30.917Z,92.50
2018-05-23T11:30:30.851Z,90.90
2018-05-23T11:31:30.858Z,90.90
2018-05-23T11:32:30.870Z,89.30
2018-05-23T11:33:30.883Z,89.90
2018-05-23T11:34:30.984Z,93.40
2018-05-23T11:35:30.920Z,85.90
2018-05-23T11:36:30.908Z,73.90
2018-05-23T11:37:30.930Z,84.90
2018-05-23T11:38:30.935Z,78.00
2018-05-23T11:39:31.121Z,75.10
2018-05-23T11:40:30.979Z,76.70
2018-05-23T11:41:30.993Z,78.90
2018-05-23T11:42:30.986Z,76.20
2018-05-23T11:43:31.000Z,69.40
2018-05-23T11:44:31.135Z,70.70
2018-05-23T11:45:31.040Z,67.90
2018-05-23T11:46:31.101Z,68.30
2018-05-23T11:47:31.067Z,64.00
2018-05-23T11:48:31.072Z,61.30
2018-05-23T11:49:31.225Z,64.10
2018-05-23T11:50:31.098Z,54.60
2018-05-23T11:51:31.118Z,58.80
2018-05-23T11:52:31.128Z,50.50
2018-05-23T11:53:31.128Z,48.30
2018-05-23T11:54:31.301Z,49.00
2018-05-23T11:55:31.166Z,45.80
2018-05-23T11:56:31.303Z,49.70
2018-05-23T11:57:31.204Z,45.60
2018-05-23T11:58:31.205Z,46.80
2018-05-23T11:59:31.387Z,46.60
2018-05-23T12:00:31.229Z,44.40
2018-05-23T12:01:31.244Z,46.60
2018-05-23T12:02:31.386Z,44.10
2018-05-23T12:03:31.280Z,44.80
2018-05-23T12:04:31.453Z,46.40
2018-05-23T12:05:31.309Z,45.50
2018-05-23T12:06:31.445Z,44.70
2018-05-23T12:07:31.325Z,45.10
2018-05-23T12:08:31.366Z,44.00
2018-05-23T12:09:31.467Z,44.80
2018-05-23T12:10:31.479Z,42.60
2018-05-23T12:11:31.397Z,43.00
2018-05-23T12:12:31.419Z,43.50
2018-05-23T12:13:31.425Z,39.70
2018-05-23T12:14:31.659Z,39.80
2018-05-23T12:15:31.464Z,39.60
2018-05-23T12:16:31.472Z,39.10
2018-05-23T12:17:31.473Z,39.50
2018-05-23T12:18:31.502Z,43.70
2018-05-23T12:19:31.684Z,40.70
2018-05-23T12:20:31.551Z,40.70
2018-05-23T12:21:31.537Z,40.70
2018-05-23T12:22:31.573Z,39.30
2018-05-23T12:23:31.595Z,38.50
2018-05-23T12:24:31.707Z,38.40
2018-05-23T12:25:31.602Z,37.40
2018-05-23T12:26:31.642Z,39.10
2018-05-23T12:27:31.627Z,39.10
2018-05-23T12:28:31.646Z,38.40